Time;durP1;ratioP1;P1;durP2;ratioP2;P2;SDS_P1;SDS_P2;PMS_P1;PMS_P2;Temp;Humidity;BMP_temperature;BMP_pressure;BME280_temperature;BME280_humidity;BME280_pressure;Samples;Min_cycle;Max_cycle;Signal;HPM_P1;HPM_P2
2022/12/23 00:01:01;;;;;;;20.10;13.70;;;4.20;75.70;;;;;;4754920;29;114779;-82
2022/12/23 00:03:28;;;;;;;20.83;12.65;;;4.20;75.70;;;;;;4722572;29;117868;-82
2022/12/23 00:05:56;;;;;;;18.20;10.80;;;4.10;75.90;;;;;;4740009;29;116727;-83
2022/12/23 00:08:23;;;;;;;16.88;11.80;;;4.10;75.90;;;;;;4740047;29;114501;-82
2022/12/23 00:10:51;;;;;;;17.00;10.45;;;4.10;76.10;;;;;;4740817;29;116083;-82
2022/12/23 00:16:11;;;;;;;15.43;9.85;;;4.10;76.20;;;;;;4739464;29;114663;-82
2022/12/23 00:18:39;;;;;;;15.57;8.70;;;4.10;76.40;;;;;;4740153;29;114436;-82
2022/12/23 00:21:12;;;;;;;15.40;9.30;;;4.00;76.40;;;;;;4739082;29;115618;-82
2022/12/23 00:23:43;;;;;;;13.45;8.63;;;4.10;76.60;;;;;;4723763;29;114971;-82
2022/12/23 00:26:24;;;;;;;15.02;9.20;;;4.10;76.50;;;;;;4738634;29;114755;-82
2022/12/23 00:28:51;;;;;;;19.40;9.75;;;4.10;76.60;;;;;;4752933;29;115397;-82
2022/12/23 00:31:22;;;;;;;15.73;9.80;;;4.10;76.50;;;;;;4739197;29;115020;-82
2022/12/23 00:33:50;;;;;;;18.60;11.10;;;4.10;76.50;;;;;;4739252;29;115059;-83
2022/12/23 00:36:27;;;;;;;23.50;10.70;;;4.10;76.60;;;;;;4736396;29;114642;-83
2022/12/23 00:44:30;;;;;;;21.75;12.45;;;4.10;76.50;;;;;;4739620;29;115060;-83
2022/12/23 00:46:58;;;;;;;17.70;11.45;;;4.10;76.60;;;;;;4739710;29;115272;-83
2022/12/23 00:49:43;;;;;;;25.40;13.55;;;4.10;76.70;;;;;;4753464;29;114431;-84
2022/12/23 00:52:13;;;;;;;25.45;14.82;;;4.10;76.70;;;;;;4751266;29;114706;-83
2022/12/23 00:54:40;;;;;;;22.15;14.30;;;4.00;76.60;;;;;;4737661;29;115111;-82
2022/12/23 00:57:07;;;;;;;24.33;15.35;;;4.00;76.70;;;;;;4739168;29;115563;-82
2022/12/23 00:59:34;;;;;;;18.80;11.45;;;4.00;76.70;;;;;;4739625;29;116839;-83
2022/12/23 01:07:34;;;;;;;12.63;8.25;;;3.90;76.50;;;;;;4737683;29;115421;-82
2022/12/23 01:10:01;;;;;;;11.45;7.88;;;3.90;76.50;;;;;;4753596;29;114696;-81
2022/12/23 01:12:28;;;;;;;10.23;6.18;;;3.90;76.50;;;;;;4739043;29;114576;-82
2022/12/23 01:14:55;;;;;;;8.60;5.80;;;3.90;76.50;;;;;;4737903;29;115375;-82
2022/12/23 01:17:23;;;;;;;9.38;6.22;;;3.90;76.50;;;;;;4753262;29;114672;-82
2022/12/23 01:19:50;;;;;;;8.07;5.35;;;3.80;76.50;;;;;;4739477;29;114729;-82
2022/12/23 01:22:18;;;;;;;7.90;4.90;;;3.80;76.40;;;;;;4752893;29;114584;-82
2022/12/23 01:24:45;;;;;;;8.10;5.47;;;3.80;76.40;;;;;;4751764;29;115679;-82
2022/12/23 01:27:12;;;;;;;7.22;5.15;;;3.80;76.30;;;;;;4751398;29;114683;-82
2022/12/23 01:29:39;;;;;;;6.53;4.45;;;3.80;76.30;;;;;;4723145;29;114465;-82
2022/12/23 01:32:07;;;;;;;6.43;4.53;;;3.90;76.30;;;;;;4738834;29;114491;-82
2022/12/23 01:34:34;;;;;;;6.90;4.78;;;3.80;76.20;;;;;;4736418;29;115438;-83
2022/12/23 01:37:04;;;;;;;6.15;4.28;;;3.90;76.20;;;;;;4737416;29;117381;-82
2022/12/23 01:39:31;;;;;;;6.78;3.97;;;3.90;76.20;;;;;;4737262;29;114734;-84
2022/12/23 01:44:55;;;;;;;9.35;5.00;;;3.90;76.10;;;;;;4749537;29;115273;-82
2022/12/23 01:47:48;;;;;;;13.30;6.32;;;3.90;76.10;;;;;;4736634;29;115242;-82
2022/12/23 01:50:26;;;;;;;9.70;5.32;;;3.90;76.20;;;;;;4737608;29;114551;-83
2022/12/23 01:53:11;;;;;;;8.38;4.85;;;3.90;76.20;;;;;;4737593;29;114491;-81
2022/12/23 01:55:48;;;;;;;7.68;4.80;;;3.90;76.00;;;;;;4722157;29;115066;-82
2022/12/23 01:58:22;;;;;;;9.50;5.63;;;3.80;75.90;;;;;;4750541;29;114765;-82
2022/12/23 02:03:42;;;;;;;9.80;6.13;;;3.80;76.10;;;;;;4724300;29;114449;-82
2022/12/23 02:09:23;;;;;;;8.88;5.50;;;3.80;76.00;;;;;;4738137;29;114667;-83
2022/12/23 02:12:13;;;;;;;9.80;5.80;;;3.80;76.10;;;;;;4737377;29;114502;-82
2022/12/23 02:18:19;;;;;;;11.38;7.50;;;3.80;76.00;;;;;;4722928;29;118543;-82
2022/12/23 02:21:23;;;;;;;11.10;7.03;;;3.80;76.00;;;;;;4736717;29;116287;-83
2022/12/23 02:24:41;;;;;;;10.02;7.10;;;3.80;75.90;;;;;;4738671;29;114454;-82
2022/12/23 02:27:25;;;;;;;14.93;7.35;;;3.80;75.90;;;;;;4747864;29;115318;-82
2022/12/23 02:30:44;;;;;;;13.07;7.88;;;3.70;76.00;;;;;;4722161;29;115585;-82
2022/12/23 02:33:27;;;;;;;13.13;7.97;;;3.80;75.90;;;;;;4751123;29;114961;-82
2022/12/23 02:36:19;;;;;;;16.65;9.10;;;3.70;76.00;;;;;;4736128;29;117300;-82
2022/12/23 02:39:14;;;;;;;10.63;7.00;;;3.70;76.00;;;;;;4738528;29;114628;-83
2022/12/23 02:41:59;;;;;;;12.82;7.85;;;3.80;75.90;;;;;;4713107;29;115312;-83
2022/12/23 02:44:36;;;;;;;;;;;3.80;75.90;;;;;;4736449;29;115253;-83
2022/12/23 02:47:10;;;;;;;12.38;7.38;;;3.70;75.70;;;;;;4736022;29;114874;-83
2022/12/23 02:49:44;;;;;;;10.95;7.32;;;3.70;76.00;;;;;;4737623;29;114378;-83
2022/12/23 02:52:14;;;;;;;13.73;7.00;;;3.70;76.00;;;;;;4751723;29;115338;-82
2022/12/23 02:54:49;;;;;;;10.13;5.60;;;3.80;76.00;;;;;;4737109;29;114772;-83
2022/12/23 02:57:21;;;;;;;9.32;5.68;;;3.80;75.90;;;;;;4738875;29;114388;-83
2022/12/23 02:59:50;;;;;;;7.20;4.45;;;3.80;75.90;;;;;;4724229;29;115944;-83
2022/12/23 03:02:18;;;;;;;6.88;4.70;;;3.80;75.80;;;;;;4724844;29;115711;-80
2022/12/23 03:04:45;;;;;;;6.45;4.13;;;3.70;75.80;;;;;;4741614;29;115167;-82
2022/12/23 03:07:24;;;;;;;5.95;4.00;;;3.70;75.70;;;;;;4741869;29;114428;-82
2022/12/23 03:10:12;;;;;;;7.22;4.80;;;3.70;75.90;;;;;;4725917;29;114705;-82
2022/12/23 03:13:03;;;;;;;9.35;4.97;;;3.70;75.90;;;;;;4740565;29;115283;-82
2022/12/23 03:16:21;;;;;;;7.43;4.78;;;3.70;75.90;;;;;;4739441;29;114921;-82
2022/12/23 03:19:07;;;;;;;6.50;4.35;;;3.60;76.10;;;;;;4740648;29;114806;-83
2022/12/23 03:21:53;;;;;;;7.28;4.75;;;3.60;76.10;;;;;;4741769;29;114769;-82
2022/12/23 03:24:44;;;;;;;7.05;5.03;;;3.60;76.20;;;;;;4741069;29;115177;-82
2022/12/23 03:27:34;;;;;;;8.05;5.40;;;3.60;76.40;;;;;;4740340;29;115833;-83
2022/12/23 03:30:10;;;;;;;6.88;5.22;;;3.60;76.30;;;;;;4741638;29;114370;-82
2022/12/23 03:33:00;;;;;;;7.28;5.55;;;3.60;76.30;;;;;;4726897;29;114327;-82
2022/12/23 03:35:37;;;;;;;7.15;5.45;;;3.70;76.40;;;;;;4710029;29;119641;-82
2022/12/23 03:38:04;;;;;;;7.68;4.93;;;3.70;76.30;;;;;;4725159;29;114807;-83
2022/12/23 03:40:41;;;;;;;7.13;4.80;;;3.70;76.20;;;;;;4725178;29;114471;-82
2022/12/23 03:43:18;;;;;;;8.75;5.45;;;3.70;76.20;;;;;;4725904;29;114316;-83
2022/12/23 03:45:54;;;;;;;7.40;4.90;;;3.70;76.10;;;;;;4739681;29;115193;-83
2022/12/23 03:48:25;;;;;;;8.65;5.22;;;3.70;76.10;;;;;;4725228;29;114808;-83
2022/12/23 03:50:58;;;;;;;7.70;5.10;;;3.70;75.90;;;;;;4755127;29;114644;-83
2022/12/23 03:53:31;;;;;;;8.68;5.15;;;3.70;76.00;;;;;;4725661;29;114594;-82
2022/12/23 03:56:06;;;;;;;6.77;4.53;;;3.70;76.00;;;;;;4739323;29;115350;-83
2022/12/23 03:58:57;;;;;;;7.78;4.65;;;3.70;76.00;;;;;;4740182;29;114740;-83
2022/12/23 04:01:39;;;;;;;8.00;4.72;;;3.70;76.00;;;;;;4740252;29;114444;-83
2022/12/23 04:04:19;;;;;;;7.18;4.90;;;3.70;76.00;;;;;;4739884;29;114284;-83
2022/12/23 04:06:58;;;;;;;6.95;4.78;;;3.70;76.00;;;;;;4724261;29;117857;-83
2022/12/23 04:09:26;;;;;;;8.02;5.43;;;3.80;76.00;;;;;;4724841;29;114673;-83
2022/12/23 04:11:54;;;;;;;8.23;4.78;;;3.70;75.90;;;;;;4724735;29;116165;-83
2022/12/23 04:14:21;;;;;;;7.30;5.03;;;3.70;76.00;;;;;;4725290;29;114828;-82
2022/12/23 04:16:52;;;;;;;6.53;4.80;;;3.80;76.10;;;;;;4754219;29;115807;-82
2022/12/23 04:19:20;;;;;;;6.30;4.97;;;3.80;76.10;;;;;;4739112;29;116802;-83
2022/12/23 04:21:47;;;;;;;8.63;5.75;;;3.80;76.20;;;;;;4738831;29;114406;-82
2022/12/23 04:24:14;;;;;;;8.63;5.75;;;3.90;76.10;;;;;;4740234;29;114586;-83
2022/12/23 04:26:41;;;;;;;8.93;6.40;;;3.80;76.20;;;;;;4751685;29;115167;-83
2022/12/23 04:29:09;;;;;;;11.10;6.68;;;3.90;76.10;;;;;;4751746;29;114890;-83
2022/12/23 04:31:36;;;;;;;9.70;7.15;;;3.80;76.20;;;;;;4740664;29;114336;-83
2022/12/23 04:34:03;;;;;;;11.05;7.63;;;3.80;76.20;;;;;;4738936;29;114509;-83
2022/12/23 04:36:30;;;;;;;11.65;7.57;;;3.80;76.20;;;;;;4740025;29;115264;-83
2022/12/23 04:38:57;;;;;;;11.65;7.70;;;3.80;76.20;;;;;;4740019;29;115042;-82
2022/12/23 04:41:25;;;;;;;11.70;8.77;;;3.80;76.20;;;;;;4740348;29;115657;-82
2022/12/23 04:43:52;;;;;;;11.10;8.05;;;3.70;76.20;;;;;;4740658;29;114422;-82
2022/12/23 04:46:19;;;;;;;10.60;6.10;;;3.70;76.30;;;;;;4738808;29;115664;-82
2022/12/23 04:48:47;;;;;;;11.57;7.65;;;3.80;76.30;;;;;;4737276;29;115316;-82
2022/12/23 04:51:14;;;;;;;12.98;8.18;;;3.60;76.40;;;;;;4740291;29;114297;-82
2022/12/23 04:53:41;;;;;;;11.35;7.45;;;3.70;76.50;;;;;;4724814;29;114749;-82
2022/12/23 04:56:08;;;;;;;12.50;8.02;;;3.60;76.60;;;;;;4738215;29;115170;-82
2022/12/23 04:58:36;;;;;;;11.25;8.18;;;3.60;76.90;;;;;;4723640;29;114632;-82
2022/12/23 05:01:08;;;;;;;12.52;9.18;;;3.60;76.90;;;;;;4740974;29;114371;-82
2022/12/23 05:03:36;;;;;;;11.07;7.22;;;3.60;76.90;;;;;;4754258;29;114487;-82
2022/12/23 05:06:04;;;;;;;12.85;7.55;;;3.70;77.00;;;;;;4723675;29;115145;-83
2022/12/23 05:08:31;;;;;;;10.57;6.93;;;3.70;77.10;;;;;;4739514;29;114689;-83
2022/12/23 05:10:59;;;;;;;11.52;7.88;;;3.70;77.00;;;;;;4740976;29;114634;-83
2022/12/23 05:13:26;;;;;;;11.55;7.88;;;3.70;77.00;;;;;;4755650;29;114524;-82
2022/12/23 05:15:53;;;;;;;11.68;7.75;;;3.80;77.00;;;;;;4739798;29;116657;-82
2022/12/23 05:18:21;;;;;;;11.48;7.38;;;3.80;76.90;;;;;;4739937;29;114799;-82
2022/12/23 05:20:48;;;;;;;11.95;7.78;;;3.90;76.90;;;;;;4739403;29;114775;-81
2022/12/23 05:23:16;;;;;;;11.20;7.30;;;3.90;76.80;;;;;;4739493;29;114591;-82
2022/12/23 05:25:50;;;;;;;10.40;6.90;;;3.90;76.80;;;;;;4739107;29;115104;-82
2022/12/23 05:28:20;;;;;;;10.70;7.40;;;4.00;76.80;;;;;;4737614;29;115236;-83
2022/12/23 05:30:47;;;;;;;10.50;7.88;;;4.00;76.60;;;;;;4737891;29;114497;-83
2022/12/23 05:33:14;;;;;;;12.63;8.50;;;4.00;76.60;;;;;;4752265;29;116168;-83
2022/12/23 05:35:42;;;;;;;10.93;7.65;;;4.00;76.50;;;;;;4752039;29;115124;-83
2022/12/23 05:38:09;;;;;;;10.48;7.88;;;4.10;76.50;;;;;;4739554;29;114739;-82
2022/12/23 05:40:36;;;;;;;10.98;7.75;;;4.10;76.40;;;;;;4740323;29;114617;-82
2022/12/23 05:43:04;;;;;;;12.50;8.52;;;4.10;76.40;;;;;;4740327;29;114433;-82
2022/12/23 05:45:34;;;;;;;9.10;6.60;;;4.10;76.30;;;;;;4749979;29;115069;-82
2022/12/23 05:48:02;;;;;;;12.38;8.05;;;4.10;76.30;;;;;;4739881;29;114664;-81
2022/12/23 05:50:29;;;;;;;11.88;8.30;;;4.10;76.30;;;;;;4754035;29;114497;-81
2022/12/23 05:53:00;;;;;;;13.15;8.63;;;4.10;76.30;;;;;;4750720;29;114458;-82
2022/12/23 05:55:28;;;;;;;10.57;7.82;;;4.10;76.20;;;;;;4738661;29;115723;-82
2022/12/23 05:57:55;;;;;;;12.25;7.35;;;4.10;76.20;;;;;;4737496;29;114656;-81
2022/12/23 06:00:22;;;;;;;9.65;7.38;;;4.10;76.20;;;;;;4740157;29;115715;-82
2022/12/23 06:02:49;;;;;;;11.85;8.27;;;4.10;76.10;;;;;;4740047;29;115315;-82
2022/12/23 06:05:20;;;;;;;10.32;7.10;;;4.10;76.20;;;;;;4735500;29;117275;-82
2022/12/23 06:07:48;;;;;;;11.52;7.93;;;4.10;76.20;;;;;;4734151;29;116730;-82
2022/12/23 06:10:15;;;;;;;13.63;8.02;;;4.10;76.20;;;;;;4729190;29;118994;-82
2022/12/23 06:12:42;;;;;;;12.38;8.30;;;4.10;76.20;;;;;;4734492;29;114724;-83
2022/12/23 06:15:10;;;;;;;14.32;8.80;;;4.10;76.20;;;;;;4734102;29;115146;-82
2022/12/23 06:17:37;;;;;;;14.52;8.25;;;4.10;76.30;;;;;;4722135;29;114903;-83
2022/12/23 06:20:07;;;;;;;12.45;7.63;;;4.00;76.30;;;;;;4733534;29;114412;-82
2022/12/23 06:22:42;;;;;;;11.68;7.80;;;4.00;76.30;;;;;;4734070;29;114530;-83
2022/12/23 06:25:09;;;;;;;15.05;7.97;;;4.10;76.40;;;;;;4734036;29;116407;-82
2022/12/23 06:27:38;;;;;;;12.75;7.55;;;4.00;76.40;;;;;;4737553;29;114809;-82
2022/12/23 06:30:10;;;;;;;11.65;6.88;;;4.00;76.40;;;;;;4734824;29;114403;-83
2022/12/23 06:32:37;;;;;;;9.65;7.00;;;4.00;76.40;;;;;;4735773;29;114562;-83
2022/12/23 06:35:06;;;;;;;10.73;6.70;;;3.90;76.40;;;;;;4733528;29;119639;-84
2022/12/23 06:37:34;;;;;;;10.13;6.30;;;3.90;76.50;;;;;;4737047;29;115175;-84
2022/12/23 06:40:01;;;;;;;9.60;7.13;;;4.00;76.60;;;;;;4724899;29;114897;-84
2022/12/23 06:42:28;;;;;;;9.05;6.32;;;4.00;76.50;;;;;;4740024;29;114657;-84
2022/12/23 06:44:56;;;;;;;9.07;6.32;;;4.00;76.60;;;;;;4736510;29;115218;-84
2022/12/23 06:47:23;;;;;;;9.32;6.15;;;4.00;76.60;;;;;;4737039;29;114649;-83
2022/12/23 06:49:50;;;;;;;7.43;5.60;;;4.00;76.60;;;;;;4736153;29;114939;-84
2022/12/23 06:52:17;;;;;;;9.75;6.10;;;3.90;76.60;;;;;;4736855;29;114533;-84
2022/12/23 06:54:48;;;;;;;8.45;5.90;;;4.00;76.70;;;;;;4736528;29;119257;-84
2022/12/23 06:57:15;;;;;;;6.72;5.00;;;4.00;76.70;;;;;;4739171;29;114673;-83
2022/12/23 06:59:42;;;;;;;9.27;5.60;;;4.00;76.70;;;;;;4720833;29;114464;-84
2022/12/23 07:02:10;;;;;;;8.43;5.05;;;4.00;76.90;;;;;;4754259;29;114547;-83
2022/12/23 07:04:38;;;;;;;7.50;5.38;;;3.90;76.90;;;;;;4737727;29;115076;-81
2022/12/23 07:07:05;;;;;;;9.63;6.40;;;3.90;77.00;;;;;;4741155;29;114776;-82
2022/12/23 07:09:32;;;;;;;8.93;5.57;;;4.00;77.00;;;;;;4741501;29;114400;-82
2022/12/23 07:12:02;;;;;;;8.45;5.80;;;4.00;77.00;;;;;;4741837;29;114321;-83
2022/12/23 07:14:29;;;;;;;10.98;7.07;;;4.00;77.10;;;;;;4737794;29;115393;-81
2022/12/23 07:16:57;;;;;;;10.57;7.38;;;4.10;77.10;;;;;;4738494;29;117174;-82
2022/12/23 07:19:24;;;;;;;12.77;7.82;;;4.10;77.00;;;;;;4755473;29;114696;-82
2022/12/23 07:21:51;;;;;;;12.43;7.82;;;4.20;77.00;;;;;;4740220;29;114626;-82
2022/12/23 07:24:19;;;;;;;11.98;8.15;;;4.20;76.90;;;;;;4734480;29;115667;-82
2022/12/23 07:26:46;;;;;;;13.20;7.95;;;4.20;77.00;;;;;;4737582;29;116110;-83
2022/12/23 07:29:13;;;;;;;11.25;7.70;;;4.20;76.90;;;;;;4754013;29;114876;-82
2022/12/23 07:31:40;;;;;;;12.15;7.63;;;4.20;77.00;;;;;;4738533;29;116067;-82
2022/12/23 07:34:08;;;;;;;11.18;7.60;;;4.30;77.40;;;;;;4723656;29;115139;-82
2022/12/23 07:36:35;;;;;;;11.30;6.85;;;4.30;77.30;;;;;;4736747;29;115037;-83
2022/12/23 07:39:03;;;;;;;13.25;7.28;;;4.30;77.30;;;;;;4735499;29;114411;-82
2022/12/23 07:41:30;;;;;;;10.52;7.20;;;4.40;77.20;;;;;;4735494;29;114651;-82
2022/12/23 07:44:06;;;;;;;11.27;7.10;;;4.40;77.10;;;;;;4751936;29;115131;-83
2022/12/23 07:46:34;;;;;;;11.93;7.15;;;4.30;77.20;;;;;;4749527;29;116337;-83
2022/12/23 07:49:02;;;;;;;9.00;6.15;;;4.30;77.20;;;;;;4736442;29;114842;-83
2022/12/23 07:51:29;;;;;;;11.90;7.35;;;4.30;77.30;;;;;;4752938;29;114643;-84
2022/12/23 07:53:57;;;;;;;10.30;7.07;;;4.30;77.40;;;;;;4722738;29;115311;-81
2022/12/23 07:56:24;;;;;;;10.48;7.30;;;4.30;77.60;;;;;;4752416;29;116041;-82
2022/12/23 07:58:57;;;;;;;10.80;6.75;;;4.40;77.50;;;;;;4748573;29;114754;-85
2022/12/23 08:01:25;;;;;;;11.10;7.17;;;4.40;77.60;;;;;;4737261;29;114738;-82
2022/12/23 08:03:53;;;;;;;10.32;7.10;;;4.40;77.60;;;;;;4735446;29;115056;-82
2022/12/23 08:06:23;;;;;;;9.68;6.40;;;4.40;77.50;;;;;;4734908;29;116007;-83
2022/12/23 08:08:50;;;;;;;11.55;7.10;;;4.30;77.50;;;;;;4735098;29;114955;-81
2022/12/23 08:11:17;;;;;;;12.00;7.38;;;4.40;77.60;;;;;;4737461;29;114987;-82
2022/12/23 08:13:45;;;;;;;10.50;6.80;;;4.40;77.80;;;;;;4735638;29;115192;-82
2022/12/23 08:16:12;;;;;;;13.20;8.20;;;4.50;77.70;;;;;;4734292;29;116133;-82
2022/12/23 08:18:40;;;;;;;12.20;7.72;;;4.50;77.70;;;;;;4738158;29;114800;-82
2022/12/23 08:21:14;;;;;;;9.70;6.57;;;4.60;77.80;;;;;;4737063;29;117612;-82
2022/12/23 08:23:42;;;;;;;;;;;4.60;77.90;;;;;;4736160;29;116075;-82
2022/12/23 08:26:14;;;;;;;11.65;7.35;;;4.60;77.40;;;;;;4707810;29;116583;-82
2022/12/23 08:28:42;;;;;;;9.82;6.55;;;4.60;77.70;;;;;;4723473;29;114947;-82
2022/12/23 08:31:18;;;;;;;11.35;7.45;;;4.70;77.50;;;;;;4740135;29;114365;-83
2022/12/23 08:33:51;;;;;;;11.40;7.28;;;4.70;77.70;;;;;;4751499;29;115007;-82
2022/12/23 08:36:33;;;;;;;12.88;8.38;;;4.70;77.50;;;;;;4750918;29;115710;-82
2022/12/23 08:39:06;;;;;;;10.85;7.05;;;4.70;77.50;;;;;;4736512;29;114906;-82
2022/12/23 08:41:43;;;;;;;13.48;8.73;;;4.70;77.30;;;;;;4711910;29;115467;-82
2022/12/23 08:44:10;;;;;;;19.85;13.02;;;4.70;77.50;;;;;;4736336;29;115239;-83
2022/12/23 08:46:37;;;;;;;17.52;11.73;;;4.70;77.40;;;;;;4718139;29;114829;-83
2022/12/23 08:49:05;;;;;;;16.23;9.60;;;4.70;77.30;;;;;;4735157;29;114611;-82
2022/12/23 08:51:33;;;;;;;19.50;14.27;;;4.70;77.30;;;;;;4737694;29;115340;-83
2022/12/23 08:54:00;;;;;;;15.38;9.68;;;4.70;77.30;;;;;;4721851;29;115260;-83
2022/12/23 08:56:34;;;;;;;18.13;10.43;;;4.70;77.30;;;;;;4734479;29;114686;-82
2022/12/23 08:59:02;;;;;;;17.88;10.13;;;4.70;77.30;;;;;;4736254;29;114849;-82
2022/12/23 09:01:31;;;;;;;20.40;12.68;;;4.70;77.30;;;;;;4736877;29;114868;-81
2022/12/23 09:04:04;;;;;;;21.52;14.63;;;4.70;77.30;;;;;;4736247;29;115189;-82
2022/12/23 09:06:39;;;;;;;22.37;14.73;;;4.70;77.20;;;;;;4749542;29;116632;-82
2022/12/23 09:09:08;;;;;;;20.02;12.30;;;4.70;77.20;;;;;;4738773;29;114598;-82
2022/12/23 09:11:35;;;;;;;20.63;12.95;;;4.70;77.20;;;;;;4752198;29;114448;-83
2022/12/23 09:14:03;;;;;;;26.52;13.15;;;4.80;77.30;;;;;;4736285;29;115427;-82
2022/12/23 09:16:30;;;;;;;23.67;13.80;;;4.80;77.30;;;;;;4737345;29;114780;-82
2022/12/23 09:18:59;;;;;;;28.27;14.63;;;4.80;77.30;;;;;;4739334;29;116272;-83
2022/12/23 09:21:26;;;;;;;32.42;14.80;;;4.90;77.20;;;;;;4736889;29;114780;-82
2022/12/23 09:23:53;;;;;;;25.17;13.23;;;4.90;77.10;;;;;;4737799;29;115904;-83
2022/12/23 09:26:23;;;;;;;33.50;13.80;;;5.00;77.00;;;;;;4736365;29;114811;-82
2022/12/23 09:28:51;;;;;;;19.67;9.88;;;5.00;77.00;;;;;;4734781;29;114441;-83
2022/12/23 09:31:18;;;;;;;20.65;11.55;;;5.00;76.70;;;;;;4735869;29;115105;-83
2022/12/23 09:33:47;;;;;;;21.85;9.90;;;5.00;76.50;;;;;;4736182;29;115124;-83
2022/12/23 09:36:15;;;;;;;19.63;11.32;;;5.00;76.70;;;;;;4737712;29;115332;-83
2022/12/23 09:38:42;;;;;;;15.43;8.70;;;5.00;76.70;;;;;;4750618;29;114883;-83
2022/12/23 09:41:34;;;;;;;15.75;9.20;;;5.00;76.60;;;;;;4740000;29;114455;-84
2022/12/23 09:44:37;;;;;;;13.57;8.23;;;5.10;76.50;;;;;;4750618;29;115939;-83
2022/12/23 09:47:09;;;;;;;11.98;7.35;;;5.10;76.40;;;;;;4735956;29;118190;-82
2022/12/23 09:49:40;;;;;;;11.23;7.10;;;5.10;76.30;;;;;;4735909;29;114476;-82
2022/12/23 09:52:08;;;;;;;13.95;11.70;;;5.00;76.20;;;;;;4722838;29;114921;-81
2022/12/23 09:54:48;;;;;;;13.10;9.63;;;5.00;76.20;;;;;;4719042;29;116025;-82
2022/12/23 09:57:29;;;;;;;12.88;10.25;;;5.00;76.20;;;;;;4719187;29;117468;-83
2022/12/23 10:00:09;;;;;;;10.55;7.72;;;5.00;76.20;;;;;;4749526;29;114585;-82
2022/12/23 10:03:14;;;;;;;12.73;10.00;;;5.00;76.00;;;;;;4752680;29;114562;-81
2022/12/23 10:06:14;;;;;;;13.18;8.00;;;5.00;76.10;;;;;;4717908;29;115369;-83
2022/12/23 10:08:48;;;;;;;11.20;8.35;;;5.00;76.10;;;;;;4733808;29;114928;-82
2022/12/23 10:11:22;;;;;;;14.27;8.68;;;5.00;76.20;;;;;;4708985;29;114576;-83
2022/12/23 10:14:02;;;;;;;11.88;7.85;;;4.90;76.20;;;;;;4740239;29;114652;-82
2022/12/23 10:16:43;;;;;;;10.98;7.68;;;5.00;76.10;;;;;;4709962;29;117966;-84
2022/12/23 10:19:23;;;;;;;10.55;7.78;;;5.00;76.10;;;;;;4719293;29;114952;-83
2022/12/23 10:21:57;;;;;;;12.45;7.65;;;5.00;76.00;;;;;;4751818;29;114459;-82
2022/12/23 10:24:29;;;;;;;11.18;7.85;;;5.00;75.90;;;;;;4735795;29;114448;-82
2022/12/23 10:27:03;;;;;;;12.15;8.25;;;5.00;75.90;;;;;;4731846;29;115260;-81
2022/12/23 10:29:31;;;;;;;13.27;8.80;;;5.10;75.80;;;;;;4736368;29;114717;-83
2022/12/23 10:32:44;;;;;;;12.65;8.55;;;5.00;75.60;;;;;;4738930;29;114797;-81
2022/12/23 10:35:30;;;;;;;13.73;8.38;;;5.00;75.80;;;;;;4734691;29;114897;-83
2022/12/23 10:38:03;;;;;;;12.45;8.43;;;4.90;75.80;;;;;;4731876;29;115431;-83
2022/12/23 10:41:13;;;;;;;12.40;8.32;;;5.00;75.80;;;;;;4752757;29;115127;-81
2022/12/23 10:44:35;;;;;;;13.80;9.25;;;5.10;75.70;;;;;;4739750;29;114919;-81
2022/12/23 10:47:47;;;;;;;13.15;9.48;;;5.10;75.90;;;;;;4735546;29;119387;-81
2022/12/23 10:50:53;;;;;;;14.80;9.10;;;5.10;76.10;;;;;;4732520;29;115561;-82
2022/12/23 10:53:39;;;;;;;15.80;9.77;;;5.20;76.10;;;;;;4742129;29;117872;-82
2022/12/23 10:56:07;;;;;;;11.52;8.25;;;5.20;76.10;;;;;;4755114;29;116378;-81
2022/12/23 10:58:37;;;;;;;9.85;7.28;;;5.20;76.00;;;;;;4724646;29;116377;-81
2022/12/23 11:01:06;;;;;;;11.40;8.07;;;5.30;76.00;;;;;;4694507;29;119326;-81
2022/12/23 11:04:18;;;;;;;11.88;8.02;;;5.40;75.90;;;;;;4738090;29;114708;-81
2022/12/23 11:06:55;;;;;;;12.25;7.78;;;5.40;75.90;;;;;;4700326;29;114643;-80
2022/12/23 11:11:00;;;;;;;12.25;7.40;;;5.40;76.10;;;;;;4733415;29;114454;-82
2022/12/23 11:13:35;;;;;;;13.45;8.65;;;5.40;75.90;;;;;;4722787;29;116396;-82
2022/12/23 11:16:25;;;;;;;12.48;8.68;;;5.50;76.00;;;;;;4739954;29;117536;-82
2022/12/23 11:19:02;;;;;;;14.57;8.95;;;5.50;75.90;;;;;;4752782;29;114798;-82
2022/12/23 11:21:30;;;;;;;14.50;9.30;;;5.50;75.90;;;;;;4755165;29;114575;-81
2022/12/23 11:24:15;;;;;;;12.98;9.63;;;5.50;75.90;;;;;;4738572;29;115200;-82
2022/12/23 11:26:49;;;;;;;18.48;10.13;;;5.60;75.80;;;;;;4739861;29;114765;-81
2022/12/23 11:29:30;;;;;;;16.42;10.70;;;5.60;75.90;;;;;;4738038;29;114467;-81
2022/12/23 11:31:57;;;;;;;18.40;11.10;;;5.60;75.80;;;;;;4723965;29;114449;-82
2022/12/23 11:34:25;;;;;;;18.75;11.60;;;5.60;75.80;;;;;;4739960;29;118703;-82
2022/12/23 11:36:57;;;;;;;16.60;9.10;;;5.60;75.80;;;;;;4725953;29;114736;-82
2022/12/23 11:39:35;;;;;;;16.10;10.68;;;5.60;75.70;;;;;;4754596;29;116459;-82
2022/12/23 11:42:14;;;;;;;15.05;9.65;;;5.60;75.80;;;;;;4737688;29;116060;-82
2022/12/23 11:44:45;;;;;;;18.38;10.98;;;5.70;75.80;;;;;;4737056;29;116195;-82
2022/12/23 11:47:21;;;;;;;19.35;10.77;;;5.70;75.80;;;;;;4724181;29;118524;-81
2022/12/23 11:49:57;;;;;;;18.55;10.52;;;5.70;75.80;;;;;;4740288;29;116153;-82
2022/12/23 11:52:31;;;;;;;17.50;11.38;;;5.70;75.70;;;;;;4739338;29;114562;-82
2022/12/23 11:55:03;;;;;;;19.88;11.05;;;5.80;75.80;;;;;;4726290;29;115266;-82
2022/12/23 11:57:42;;;;;;;18.95;11.85;;;5.80;75.50;;;;;;4756245;29;115132;-82
2022/12/23 12:00:19;;;;;;;19.67;12.32;;;5.90;75.80;;;;;;4738817;29;114826;-81
2022/12/23 12:02:50;;;;;;;23.13;12.98;;;5.90;75.70;;;;;;4750796;29;114416;-82
2022/12/23 12:05:29;;;;;;;22.80;14.90;;;5.80;75.70;;;;;;4736994;29;115100;-82
2022/12/23 12:08:12;;;;;;;21.42;13.07;;;5.90;75.70;;;;;;4723937;29;115998;-82
2022/12/23 12:10:40;;;;;;;18.30;12.30;;;5.90;75.80;;;;;;4736189;29;114830;-81
2022/12/23 12:13:24;;;;;;;20.30;12.35;;;5.80;75.70;;;;;;4722433;29;114610;-82
2022/12/23 12:16:09;;;;;;;20.13;12.88;;;5.90;75.70;;;;;;4726839;29;115148;-82
2022/12/23 12:18:38;;;;;;;22.48;15.30;;;5.90;75.90;;;;;;4754234;29;114708;-82
2022/12/23 12:21:10;;;;;;;27.20;16.88;;;5.90;75.90;;;;;;4738781;29;114464;-82
2022/12/23 12:23:46;;;;;;;16.40;10.40;;;5.90;75.90;;;;;;4753457;29;114850;-82
2022/12/23 12:26:22;;;;;;;20.25;11.32;;;5.90;75.80;;;;;;4685486;29;118440;-81
2022/12/23 12:28:55;;;;;;;18.98;11.68;;;5.90;75.90;;;;;;4725812;29;115537;-82
2022/12/23 12:31:36;;;;;;;21.08;14.35;;;5.90;75.90;;;;;;4739791;29;114849;-81
2022/12/23 12:34:15;;;;;;;18.42;11.20;;;6.00;76.00;;;;;;4734420;29;114352;-82
2022/12/23 12:37:03;;;;;;;20.38;14.15;;;5.90;75.70;;;;;;4720396;29;116569;-82
2022/12/23 12:39:41;;;;;;;21.75;15.25;;;6.00;75.80;;;;;;4718954;29;114547;-81
2022/12/23 12:42:35;;;;;;;25.17;15.77;;;5.90;75.80;;;;;;4739277;29;114359;-82
2022/12/23 12:45:31;;;;;;;22.67;14.85;;;6.00;76.00;;;;;;4726711;29;114599;-81
2022/12/23 12:48:22;;;;;;;23.30;14.93;;;6.00;76.00;;;;;;4750657;29;117515;-81
2022/12/23 12:51:01;;;;;;;24.27;14.70;;;6.00;76.10;;;;;;4752144;29;115910;-81
2022/12/23 12:53:29;;;;;;;23.77;15.00;;;6.00;76.00;;;;;;4738440;29;114626;-82
2022/12/23 12:56:11;;;;;;;25.33;15.35;;;6.00;76.00;;;;;;4738238;29;114681;-81
2022/12/23 12:58:38;;;;;;;31.08;22.02;;;6.00;76.00;;;;;;4721536;29;115294;-81
2022/12/23 13:01:16;;;;;;;28.35;22.48;;;6.00;76.00;;;;;;4705979;29;118446;-82
2022/12/23 13:04:03;;;;;;;29.27;20.75;;;6.10;76.00;;;;;;4751077;29;115596;-82
2022/12/23 13:06:55;;;;;;;28.30;18.55;;;6.00;76.00;;;;;;4723652;29;114803;-81
2022/12/23 13:10:04;;;;;;;26.60;18.17;;;6.00;76.10;;;;;;4736198;29;115673;-81
2022/12/23 13:12:58;;;;;;;28.20;19.02;;;6.10;76.20;;;;;;4750982;29;114759;-81
2022/12/23 13:15:50;;;;;;;23.20;15.35;;;6.00;76.20;;;;;;4738927;29;114540;-81
2022/12/23 13:18:54;;;;;;;30.33;17.33;;;6.00;76.20;;;;;;4752342;29;114283;-83
2022/12/23 13:21:35;;;;;;;35.58;20.73;;;6.00;76.30;;;;;;4725558;29;115744;-81
2022/12/23 13:24:45;;;;;;;29.23;16.17;;;6.00;76.20;;;;;;4736678;29;117115;-82
2022/12/23 13:27:46;;;;;;;19.38;12.40;;;6.10;76.10;;;;;;4735732;29;114360;-81
2022/12/23 13:30:18;;;;;;;16.23;9.73;;;6.10;76.30;;;;;;4718015;29;114724;-81
2022/12/23 13:33:32;;;;;;;11.93;6.47;;;6.10;76.30;;;;;;4725059;29;115396;-81
2022/12/23 13:36:31;;;;;;;9.07;5.22;;;6.10;76.30;;;;;;4752408;29;116977;-82
2022/12/23 13:39:29;;;;;;;9.90;5.22;;;6.10;76.30;;;;;;4738127;29;116973;-83
2022/12/23 13:41:57;;;;;;;9.00;4.38;;;6.20;76.20;;;;;;4737848;29;114670;-80
2022/12/23 13:44:32;;;;;;;9.05;4.70;;;6.20;76.20;;;;;;4705363;29;118002;-81